sensor_id;sensor_type;location;lat;lon;timestamp;temperature;humidity
44565;DHT22;30275;51.822;-0.326;2022-08-01T00:00:42;22.00;95.90
44565;DHT22;30275;51.822;-0.326;2022-08-01T00:03:08;21.70;96.60
44565;DHT22;30275;51.822;-0.326;2022-08-01T00:05:33;21.70;96.60
44565;DHT22;30275;51.822;-0.326;2022-08-01T00:07:59;21.60;96.80
44565;DHT22;30275;51.822;-0.326;2022-08-01T00:10:25;21.50;97.10
44565;DHT22;30275;51.822;-0.326;2022-08-01T00:12:50;21.60;97.00
44565;DHT22;30275;51.822;-0.326;2022-08-01T00:15:17;21.60;97.20
44565;DHT22;30275;51.822;-0.326;2022-08-01T00:17:43;21.70;96.80
44565;DHT22;30275;51.822;-0.326;2022-08-01T00:20:11;21.80;97.10
44565;DHT22;30275;51.822;-0.326;2022-08-01T00:22:38;21.90;96.50
44565;DHT22;30275;51.822;-0.326;2022-08-01T00:25:04;21.80;96.40
44565;DHT22;30275;51.822;-0.326;2022-08-01T00:27:31;21.80;96.80
44565;DHT22;30275;51.822;-0.326;2022-08-01T00:29:57;21.70;96.60
44565;DHT22;30275;51.822;-0.326;2022-08-01T00:32:23;21.50;96.80
44565;DHT22;30275;51.822;-0.326;2022-08-01T00:34:49;21.30;97.20
44565;DHT22;30275;51.822;-0.326;2022-08-01T00:37:15;21.10;97.60
44565;DHT22;30275;51.822;-0.326;2022-08-01T00:39:41;21.10;97.80
44565;DHT22;30275;51.822;-0.326;2022-08-01T00:42:11;21.00;97.90
44565;DHT22;30275;51.822;-0.326;2022-08-01T00:44:38;21.00;98.00
44565;DHT22;30275;51.822;-0.326;2022-08-01T00:47:04;21.10;97.70
44565;DHT22;30275;51.822;-0.326;2022-08-01T00:49:30;21.20;97.70
44565;DHT22;30275;51.822;-0.326;2022-08-01T00:51:56;21.20;97.80
44565;DHT22;30275;51.822;-0.326;2022-08-01T00:54:27;21.20;97.90
44565;DHT22;30275;51.822;-0.326;2022-08-01T00:56:54;21.10;97.90
44565;DHT22;30275;51.822;-0.326;2022-08-01T00:59:21;21.20;97.90
44565;DHT22;30275;51.822;-0.326;2022-08-01T01:01:47;21.40;97.80
44565;DHT22;30275;51.822;-0.326;2022-08-01T01:04:13;21.40;97.40
44565;DHT22;30275;51.822;-0.326;2022-08-01T01:06:52;21.30;97.20
44565;DHT22;30275;51.822;-0.326;2022-08-01T01:09:42;21.40;97.40
44565;DHT22;30275;51.822;-0.326;2022-08-01T01:15:06;21.50;97.60
44565;DHT22;30275;51.822;-0.326;2022-08-01T01:17:46;21.50;97.70
44565;DHT22;30275;51.822;-0.326;2022-08-01T01:20:15;21.50;97.10
44565;DHT22;30275;51.822;-0.326;2022-08-01T01:30:57;22.30;96.30
44565;DHT22;30275;51.822;-0.326;2022-08-01T01:33:25;22.20;96.20
44565;DHT22;30275;51.822;-0.326;2022-08-01T01:35:57;22.20;95.80
44565;DHT22;30275;51.822;-0.326;2022-08-01T01:38:28;22.10;95.60
44565;DHT22;30275;51.822;-0.326;2022-08-01T01:40:56;21.60;96.80
44565;DHT22;30275;51.822;-0.326;2022-08-01T01:43:23;21.70;97.10
44565;DHT22;30275;51.822;-0.326;2022-08-01T01:45:50;21.60;96.50
44565;DHT22;30275;51.822;-0.326;2022-08-01T01:48:18;21.60;97.10
44565;DHT22;30275;51.822;-0.326;2022-08-01T01:50:48;21.40;97.20
44565;DHT22;30275;51.822;-0.326;2022-08-01T01:53:17;21.20;97.40
44565;DHT22;30275;51.822;-0.326;2022-08-01T01:55:46;21.10;97.60
44565;DHT22;30275;51.822;-0.326;2022-08-01T01:58:14;21.00;97.80
44565;DHT22;30275;51.822;-0.326;2022-08-01T02:00:42;20.70;98.10
44565;DHT22;30275;51.822;-0.326;2022-08-01T02:03:11;20.70;98.60
44565;DHT22;30275;51.822;-0.326;2022-08-01T02:05:38;20.60;98.50
44565;DHT22;30275;51.822;-0.326;2022-08-01T02:08:05;20.70;98.60
44565;DHT22;30275;51.822;-0.326;2022-08-01T02:10:32;20.70;98.60
44565;DHT22;30275;51.822;-0.326;2022-08-01T02:13:02;20.60;98.80
44565;DHT22;30275;51.822;-0.326;2022-08-01T02:15:31;20.40;98.90
44565;DHT22;30275;51.822;-0.326;2022-08-01T02:17:58;20.30;99.10
44565;DHT22;30275;51.822;-0.326;2022-08-01T02:20:27;20.40;99.90
44565;DHT22;30275;51.822;-0.326;2022-08-01T02:23:07;20.40;99.70
44565;DHT22;30275;51.822;-0.326;2022-08-01T02:25:43;20.50;99.50
44565;DHT22;30275;51.822;-0.326;2022-08-01T02:28:15;20.50;99.10
44565;DHT22;30275;51.822;-0.326;2022-08-01T02:30:46;20.60;99.10
44565;DHT22;30275;51.822;-0.326;2022-08-01T02:35:43;20.60;98.90
44565;DHT22;30275;51.822;-0.326;2022-08-01T02:38:12;20.60;99.20
44565;DHT22;30275;51.822;-0.326;2022-08-01T02:40:42;20.70;98.90
44565;DHT22;30275;51.822;-0.326;2022-08-01T02:43:09;20.80;99.00
44565;DHT22;30275;51.822;-0.326;2022-08-01T02:45:41;20.70;98.80
44565;DHT22;30275;51.822;-0.326;2022-08-01T02:48:09;20.70;99.00
44565;DHT22;30275;51.822;-0.326;2022-08-01T02:50:36;20.60;99.10
44565;DHT22;30275;51.822;-0.326;2022-08-01T02:53:04;20.50;99.20
44565;DHT22;30275;51.822;-0.326;2022-08-01T02:55:32;20.60;99.30
44565;DHT22;30275;51.822;-0.326;2022-08-01T02:58:00;20.70;99.20
44565;DHT22;30275;51.822;-0.326;2022-08-01T03:00:28;20.70;98.90
44565;DHT22;30275;51.822;-0.326;2022-08-01T03:02:55;20.50;99.10
44565;DHT22;30275;51.822;-0.326;2022-08-01T03:05:24;20.40;99.60
44565;DHT22;30275;51.822;-0.326;2022-08-01T03:07:51;20.50;99.50
44565;DHT22;30275;51.822;-0.326;2022-08-01T03:10:18;20.40;99.40
44565;DHT22;30275;51.822;-0.326;2022-08-01T03:12:45;20.50;99.40
44565;DHT22;30275;51.822;-0.326;2022-08-01T03:15:12;20.50;99.30
44565;DHT22;30275;51.822;-0.326;2022-08-01T03:17:40;20.50;99.30
44565;DHT22;30275;51.822;-0.326;2022-08-01T03:20:09;20.40;99.40
44565;DHT22;30275;51.822;-0.326;2022-08-01T03:22:37;20.30;99.50
44565;DHT22;30275;51.822;-0.326;2022-08-01T03:25:05;20.30;99.60
44565;DHT22;30275;51.822;-0.326;2022-08-01T03:27:32;20.30;99.70
44565;DHT22;30275;51.822;-0.326;2022-08-01T03:29:59;20.30;99.80
44565;DHT22;30275;51.822;-0.326;2022-08-01T03:32:28;20.30;99.80
44565;DHT22;30275;51.822;-0.326;2022-08-01T03:34:55;20.30;99.90
44565;DHT22;30275;51.822;-0.326;2022-08-01T03:37:25;20.30;99.90
44565;DHT22;30275;51.822;-0.326;2022-08-01T03:40:02;20.40;99.50
44565;DHT22;30275;51.822;-0.326;2022-08-01T03:42:40;20.30;99.80
44565;DHT22;30275;51.822;-0.326;2022-08-01T03:45:09;20.30;99.90
44565;DHT22;30275;51.822;-0.326;2022-08-01T03:47:36;20.20;99.90
44565;DHT22;30275;51.822;-0.326;2022-08-01T03:50:04;20.10;99.90
44565;DHT22;30275;51.822;-0.326;2022-08-01T03:52:32;20.00;99.90
44565;DHT22;30275;51.822;-0.326;2022-08-01T03:55:03;20.00;99.90
44565;DHT22;30275;51.822;-0.326;2022-08-01T03:57:30;20.10;99.90
44565;DHT22;30275;51.822;-0.326;2022-08-01T04:00:00;20.20;99.90
44565;DHT22;30275;51.822;-0.326;2022-08-01T04:02:29;20.20;99.90
44565;DHT22;30275;51.822;-0.326;2022-08-01T04:04:55;20.30;99.90
44565;DHT22;30275;51.822;-0.326;2022-08-01T04:07:28;20.30;99.70
44565;DHT22;30275;51.822;-0.326;2022-08-01T04:09:55;20.10;99.90
44565;DHT22;30275;51.822;-0.326;2022-08-01T04:12:21;20.10;99.90
44565;DHT22;30275;51.822;-0.326;2022-08-01T04:14:47;20.10;99.90
44565;DHT22;30275;51.822;-0.326;2022-08-01T04:17:14;20.10;99.90
44565;DHT22;30275;51.822;-0.326;2022-08-01T04:19:40;20.20;99.90
44565;DHT22;30275;51.822;-0.326;2022-08-01T04:22:07;20.20;99.90
44565;DHT22;30275;51.822;-0.326;2022-08-01T04:24:34;20.20;99.90
44565;DHT22;30275;51.822;-0.326;2022-08-01T04:27:03;20.00;99.90
44565;DHT22;30275;51.822;-0.326;2022-08-01T04:29:31;19.90;99.90
44565;DHT22;30275;51.822;-0.326;2022-08-01T04:31:58;19.80;99.90
44565;DHT22;30275;51.822;-0.326;2022-08-01T04:34:26;19.80;99.90
44565;DHT22;30275;51.822;-0.326;2022-08-01T04:36:55;19.80;99.90
44565;DHT22;30275;51.822;-0.326;2022-08-01T04:39:24;19.90;99.90
44565;DHT22;30275;51.822;-0.326;2022-08-01T04:41:52;19.80;99.90
44565;DHT22;30275;51.822;-0.326;2022-08-01T04:44:22;19.70;99.90
44565;DHT22;30275;51.822;-0.326;2022-08-01T04:46:48;19.60;99.90
44565;DHT22;30275;51.822;-0.326;2022-08-01T04:49:15;19.60;99.90
44565;DHT22;30275;51.822;-0.326;2022-08-01T04:51:55;19.60;99.90
44565;DHT22;30275;51.822;-0.326;2022-08-01T04:54:26;19.70;99.90
44565;DHT22;30275;51.822;-0.326;2022-08-01T04:56:56;19.70;99.90
44565;DHT22;30275;51.822;-0.326;2022-08-01T04:59:36;19.70;99.90
44565;DHT22;30275;51.822;-0.326;2022-08-01T05:02:17;19.70;99.90
44565;DHT22;30275;51.822;-0.326;2022-08-01T05:04:45;19.50;99.90
44565;DHT22;30275;51.822;-0.326;2022-08-01T05:07:11;19.60;99.90
44565;DHT22;30275;51.822;-0.326;2022-08-01T05:09:38;19.70;99.90
44565;DHT22;30275;51.822;-0.326;2022-08-01T05:12:07;19.70;99.90
44565;DHT22;30275;51.822;-0.326;2022-08-01T05:14:33;19.70;99.90
44565;DHT22;30275;51.822;-0.326;2022-08-01T05:17:03;19.60;99.90
44565;DHT22;30275;51.822;-0.326;2022-08-01T05:19:30;19.60;99.90
44565;DHT22;30275;51.822;-0.326;2022-08-01T05:21:58;19.70;99.90
44565;DHT22;30275;51.822;-0.326;2022-08-01T05:24:26;19.70;99.90
44565;DHT22;30275;51.822;-0.326;2022-08-01T05:26:54;19.60;99.90
44565;DHT22;30275;51.822;-0.326;2022-08-01T05:29:20;19.70;99.90
44565;DHT22;30275;51.822;-0.326;2022-08-01T05:31:45;19.70;99.90
44565;DHT22;30275;51.822;-0.326;2022-08-01T05:34:11;19.80;99.90
44565;DHT22;30275;51.822;-0.326;2022-08-01T05:36:36;19.70;99.90
44565;DHT22;30275;51.822;-0.326;2022-08-01T05:39:03;19.70;99.90
44565;DHT22;30275;51.822;-0.326;2022-08-01T05:41:30;19.70;99.90
44565;DHT22;30275;51.822;-0.326;2022-08-01T05:43:55;19.70;99.90
44565;DHT22;30275;51.822;-0.326;2022-08-01T05:46:21;19.80;99.90
44565;DHT22;30275;51.822;-0.326;2022-08-01T05:48:47;19.80;99.90
44565;DHT22;30275;51.822;-0.326;2022-08-01T05:51:12;19.80;99.90
44565;DHT22;30275;51.822;-0.326;2022-08-01T05:53:38;19.90;99.90
44565;DHT22;30275;51.822;-0.326;2022-08-01T05:56:04;20.10;99.90
44565;DHT22;30275;51.822;-0.326;2022-08-01T05:58:30;20.20;99.90
44565;DHT22;30275;51.822;-0.326;2022-08-01T06:00:57;20.20;99.90
44565;DHT22;30275;51.822;-0.326;2022-08-01T06:03:23;20.20;99.90
44565;DHT22;30275;51.822;-0.326;2022-08-01T06:05:50;20.20;99.90
44565;DHT22;30275;51.822;-0.326;2022-08-01T06:08:16;20.30;99.90
44565;DHT22;30275;51.822;-0.326;2022-08-01T06:10:42;20.20;99.90
44565;DHT22;30275;51.822;-0.326;2022-08-01T06:13:08;20.20;99.90
44565;DHT22;30275;51.822;-0.326;2022-08-01T06:15:34;20.10;99.90
44565;DHT22;30275;51.822;-0.326;2022-08-01T06:17:59;20.30;99.90
44565;DHT22;30275;51.822;-0.326;2022-08-01T06:20:25;20.50;99.90
44565;DHT22;30275;51.822;-0.326;2022-08-01T06:22:50;20.70;99.90
44565;DHT22;30275;51.822;-0.326;2022-08-01T06:25:20;20.80;99.90
44565;DHT22;30275;51.822;-0.326;2022-08-01T06:27:45;20.90;99.60
44565;DHT22;30275;51.822;-0.326;2022-08-01T06:30:11;20.80;99.70
44565;DHT22;30275;51.822;-0.326;2022-08-01T06:32:37;20.90;99.80
44565;DHT22;30275;51.822;-0.326;2022-08-01T06:35:03;21.00;99.70
44565;DHT22;30275;51.822;-0.326;2022-08-01T06:37:30;20.90;99.70
44565;DHT22;30275;51.822;-0.326;2022-08-01T06:40:03;20.60;99.90
44565;DHT22;30275;51.822;-0.326;2022-08-01T06:42:28;20.50;99.90
44565;DHT22;30275;51.822;-0.326;2022-08-01T06:44:57;20.50;99.90
44565;DHT22;30275;51.822;-0.326;2022-08-01T06:47:23;20.20;99.90
44565;DHT22;30275;51.822;-0.326;2022-08-01T06:49:48;20.30;99.90
44565;DHT22;30275;51.822;-0.326;2022-08-01T06:52:14;20.30;99.90
44565;DHT22;30275;51.822;-0.326;2022-08-01T06:54:39;20.60;99.90
44565;DHT22;30275;51.822;-0.326;2022-08-01T06:57:05;20.70;99.90
44565;DHT22;30275;51.822;-0.326;2022-08-01T06:59:31;20.50;99.90
44565;DHT22;30275;51.822;-0.326;2022-08-01T07:01:57;20.10;99.90
44565;DHT22;30275;51.822;-0.326;2022-08-01T07:04:23;19.70;99.90
44565;DHT22;30275;51.822;-0.326;2022-08-01T07:06:48;19.40;99.90
44565;DHT22;30275;51.822;-0.326;2022-08-01T07:09:14;19.20;99.90
44565;DHT22;30275;51.822;-0.326;2022-08-01T07:11:40;19.20;99.90
44565;DHT22;30275;51.822;-0.326;2022-08-01T07:14:06;19.40;99.90
44565;DHT22;30275;51.822;-0.326;2022-08-01T07:16:31;19.60;99.90
44565;DHT22;30275;51.822;-0.326;2022-08-01T07:18:57;19.80;99.90
44565;DHT22;30275;51.822;-0.326;2022-08-01T07:21:23;19.70;99.90
44565;DHT22;30275;51.822;-0.326;2022-08-01T07:23:49;19.80;99.90
44565;DHT22;30275;51.822;-0.326;2022-08-01T07:26:14;19.80;99.90
44565;DHT22;30275;51.822;-0.326;2022-08-01T07:28:40;20.10;99.90
44565;DHT22;30275;51.822;-0.326;2022-08-01T07:31:06;20.40;99.90
44565;DHT22;30275;51.822;-0.326;2022-08-01T07:33:31;20.60;99.90
44565;DHT22;30275;51.822;-0.326;2022-08-01T07:35:57;20.80;99.90
44565;DHT22;30275;51.822;-0.326;2022-08-01T07:38:23;20.60;99.90
44565;DHT22;30275;51.822;-0.326;2022-08-01T07:40:48;20.40;99.90
44565;DHT22;30275;51.822;-0.326;2022-08-01T07:43:14;19.90;99.90
44565;DHT22;30275;51.822;-0.326;2022-08-01T07:45:41;19.90;99.90
44565;DHT22;30275;51.822;-0.326;2022-08-01T07:48:07;20.10;99.90
44565;DHT22;30275;51.822;-0.326;2022-08-01T07:50:33;20.10;99.90
44565;DHT22;30275;51.822;-0.326;2022-08-01T07:52:59;20.20;99.90
44565;DHT22;30275;51.822;-0.326;2022-08-01T07:55:25;20.40;99.90
44565;DHT22;30275;51.822;-0.326;2022-08-01T07:57:51;20.70;99.90
44565;DHT22;30275;51.822;-0.326;2022-08-01T08:00:17;21.00;99.90
44565;DHT22;30275;51.822;-0.326;2022-08-01T08:02:43;21.20;99.90
44565;DHT22;30275;51.822;-0.326;2022-08-01T08:05:10;21.40;99.50
44565;DHT22;30275;51.822;-0.326;2022-08-01T08:07:36;21.50;99.30
44565;DHT22;30275;51.822;-0.326;2022-08-01T08:10:03;21.70;98.90
44565;DHT22;30275;51.822;-0.326;2022-08-01T08:12:29;21.70;98.60
44565;DHT22;30275;51.822;-0.326;2022-08-01T08:14:55;21.90;98.60
44565;DHT22;30275;51.822;-0.326;2022-08-01T08:17:20;21.90;98.40
44565;DHT22;30275;51.822;-0.326;2022-08-01T08:19:46;21.90;98.10
44565;DHT22;30275;51.822;-0.326;2022-08-01T08:22:12;21.90;98.10
44565;DHT22;30275;51.822;-0.326;2022-08-01T08:24:38;22.00;97.90
44565;DHT22;30275;51.822;-0.326;2022-08-01T08:27:03;22.10;97.90
44565;DHT22;30275;51.822;-0.326;2022-08-01T08:29:30;22.00;97.60
44565;DHT22;30275;51.822;-0.326;2022-08-01T08:31:58;22.00;97.30
44565;DHT22;30275;51.822;-0.326;2022-08-01T08:34:25;22.10;97.80
44565;DHT22;30275;51.822;-0.326;2022-08-01T08:36:51;22.10;97.90
44565;DHT22;30275;51.822;-0.326;2022-08-01T08:39:17;22.10;98.00
44565;DHT22;30275;51.822;-0.326;2022-08-01T08:41:44;22.10;97.80
44565;DHT22;30275;51.822;-0.326;2022-08-01T08:44:10;22.20;97.90
44565;DHT22;30275;51.822;-0.326;2022-08-01T08:46:42;22.20;98.00
44565;DHT22;30275;51.822;-0.326;2022-08-01T08:49:10;22.30;98.00
44565;DHT22;30275;51.822;-0.326;2022-08-01T08:51:38;22.40;97.80
44565;DHT22;30275;51.822;-0.326;2022-08-01T08:54:06;22.50;97.70
44565;DHT22;30275;51.822;-0.326;2022-08-01T08:56:31;22.50;97.50
44565;DHT22;30275;51.822;-0.326;2022-08-01T08:59:00;22.60;97.60
44565;DHT22;30275;51.822;-0.326;2022-08-01T09:01:26;22.70;97.20
44565;DHT22;30275;51.822;-0.326;2022-08-01T09:03:53;22.70;97.00
44565;DHT22;30275;51.822;-0.326;2022-08-01T09:06:19;22.70;96.90
44565;DHT22;30275;51.822;-0.326;2022-08-01T09:08:45;22.80;96.80
44565;DHT22;30275;51.822;-0.326;2022-08-01T09:11:11;22.80;96.70
44565;DHT22;30275;51.822;-0.326;2022-08-01T09:13:37;22.90;96.70
44565;DHT22;30275;51.822;-0.326;2022-08-01T09:16:05;22.90;96.60
44565;DHT22;30275;51.822;-0.326;2022-08-01T09:18:37;22.90;96.40
44565;DHT22;30275;51.822;-0.326;2022-08-01T09:23:48;23.10;96.30
44565;DHT22;30275;51.822;-0.326;2022-08-01T09:26:19;23.10;96.60
44565;DHT22;30275;51.822;-0.326;2022-08-01T09:28:48;23.10;96.30
44565;DHT22;30275;51.822;-0.326;2022-08-01T09:31:17;23.20;96.20
44565;DHT22;30275;51.822;-0.326;2022-08-01T09:33:57;23.20;96.10
44565;DHT22;30275;51.822;-0.326;2022-08-01T09:36:25;23.20;96.00
44565;DHT22;30275;51.822;-0.326;2022-08-01T09:38:52;23.30;95.90
44565;DHT22;30275;51.822;-0.326;2022-08-01T09:41:29;23.30;95.80
44565;DHT22;30275;51.822;-0.326;2022-08-01T09:43:55;23.30;95.80
44565;DHT22;30275;51.822;-0.326;2022-08-01T09:46:21;23.30;95.80
44565;DHT22;30275;51.822;-0.326;2022-08-01T09:48:56;23.30;95.70
44565;DHT22;30275;51.822;-0.326;2022-08-01T09:51:37;23.30;95.70
44565;DHT22;30275;51.822;-0.326;2022-08-01T09:54:05;23.40;95.70
44565;DHT22;30275;51.822;-0.326;2022-08-01T09:56:39;23.40;95.60
44565;DHT22;30275;51.822;-0.326;2022-08-01T09:59:05;23.40;95.50
44565;DHT22;30275;51.822;-0.326;2022-08-01T10:01:44;23.50;95.50
44565;DHT22;30275;51.822;-0.326;2022-08-01T10:04:19;23.50;95.40
44565;DHT22;30275;51.822;-0.326;2022-08-01T10:06:47;23.50;95.30
44565;DHT22;30275;51.822;-0.326;2022-08-01T10:09:29;23.60;95.30
44565;DHT22;30275;51.822;-0.326;2022-08-01T10:11:55;23.60;95.20
44565;DHT22;30275;51.822;-0.326;2022-08-01T10:14:23;23.60;95.20
44565;DHT22;30275;51.822;-0.326;2022-08-01T10:16:52;23.70;95.40
44565;DHT22;30275;51.822;-0.326;2022-08-01T10:19:21;23.70;95.10
44565;DHT22;30275;51.822;-0.326;2022-08-01T10:21:50;23.70;95.10
44565;DHT22;30275;51.822;-0.326;2022-08-01T10:24:20;23.80;95.00
44565;DHT22;30275;51.822;-0.326;2022-08-01T10:26:52;23.80;95.00
44565;DHT22;30275;51.822;-0.326;2022-08-01T10:29:21;23.80;95.00
44565;DHT22;30275;51.822;-0.326;2022-08-01T10:31:49;23.80;95.00
44565;DHT22;30275;51.822;-0.326;2022-08-01T10:34:15;23.80;95.10
44565;DHT22;30275;51.822;-0.326;2022-08-01T10:36:45;23.80;95.10
44565;DHT22;30275;51.822;-0.326;2022-08-01T10:39:11;23.80;95.10
44565;DHT22;30275;51.822;-0.326;2022-08-01T10:41:41;23.80;95.00
44565;DHT22;30275;51.822;-0.326;2022-08-01T10:44:07;23.90;95.00
44565;DHT22;30275;51.822;-0.326;2022-08-01T10:46:44;23.90;95.00
44565;DHT22;30275;51.822;-0.326;2022-08-01T10:49:15;23.90;95.10
44565;DHT22;30275;51.822;-0.326;2022-08-01T10:51:42;23.90;95.10
44565;DHT22;30275;51.822;-0.326;2022-08-01T10:54:10;23.90;95.10
44565;DHT22;30275;51.822;-0.326;2022-08-01T10:56:47;23.80;95.10
44565;DHT22;30275;51.822;-0.326;2022-08-01T10:59:25;23.90;95.10
44565;DHT22;30275;51.822;-0.326;2022-08-01T11:02:00;23.90;95.10
44565;DHT22;30275;51.822;-0.326;2022-08-01T11:07:06;23.90;95.00
44565;DHT22;30275;51.822;-0.326;2022-08-01T11:09:39;23.90;95.00
44565;DHT22;30275;51.822;-0.326;2022-08-01T11:17:46;24.00;94.90
44565;DHT22;30275;51.822;-0.326;2022-08-01T11:26:06;24.00;94.90
44565;DHT22;30275;51.822;-0.326;2022-08-01T11:30:40;24.00;95.00
44565;DHT22;30275;51.822;-0.326;2022-08-01T11:33:07;24.00;94.90
44565;DHT22;30275;51.822;-0.326;2022-08-01T11:35:35;24.00;94.90
44565;DHT22;30275;51.822;-0.326;2022-08-01T11:38:26;24.00;95.00
44565;DHT22;30275;51.822;-0.326;2022-08-01T11:41:23;24.00;94.90
44565;DHT22;30275;51.822;-0.326;2022-08-01T11:49:43;24.00;94.90
44565;DHT22;30275;51.822;-0.326;2022-08-01T11:54:45;24.10;94.90
44565;DHT22;30275;51.822;-0.326;2022-08-01T11:57:21;24.10;94.80
44565;DHT22;30275;51.822;-0.326;2022-08-01T11:59:53;24.10;94.80
44565;DHT22;30275;51.822;-0.326;2022-08-01T12:02:27;24.20;94.80
44565;DHT22;30275;51.822;-0.326;2022-08-01T12:07:20;24.20;94.90
44565;DHT22;30275;51.822;-0.326;2022-08-01T12:09:47;24.20;94.90
44565;DHT22;30275;51.822;-0.326;2022-08-01T12:12:17;24.20;94.90
44565;DHT22;30275;51.822;-0.326;2022-08-01T12:14:45;24.20;94.90
44565;DHT22;30275;51.822;-0.326;2022-08-01T12:17:11;24.20;95.00
44565;DHT22;30275;51.822;-0.326;2022-08-01T12:19:37;24.20;95.00
44565;DHT22;30275;51.822;-0.326;2022-08-01T12:22:14;24.20;95.00
44565;DHT22;30275;51.822;-0.326;2022-08-01T12:24:42;24.20;95.00
44565;DHT22;30275;51.822;-0.326;2022-08-01T12:27:09;24.20;94.90
44565;DHT22;30275;51.822;-0.326;2022-08-01T12:29:44;24.30;94.90
44565;DHT22;30275;51.822;-0.326;2022-08-01T12:32:31;24.40;94.90
44565;DHT22;30275;51.822;-0.326;2022-08-01T12:37:38;24.40;94.80
44565;DHT22;30275;51.822;-0.326;2022-08-01T12:40:29;24.40;94.80
44565;DHT22;30275;51.822;-0.326;2022-08-01T12:42:58;24.40;94.80
44565;DHT22;30275;51.822;-0.326;2022-08-01T12:45:30;24.50;94.80
44565;DHT22;30275;51.822;-0.326;2022-08-01T12:47:57;24.50;94.70
44565;DHT22;30275;51.822;-0.326;2022-08-01T12:50:27;24.50;94.80
44565;DHT22;30275;51.822;-0.326;2022-08-01T12:52:55;24.50;94.70
44565;DHT22;30275;51.822;-0.326;2022-08-01T12:55:23;24.50;94.60
44565;DHT22;30275;51.822;-0.326;2022-08-01T12:58:05;24.60;94.60
44565;DHT22;30275;51.822;-0.326;2022-08-01T13:00:32;24.60;94.60
44565;DHT22;30275;51.822;-0.326;2022-08-01T13:03:07;24.60;94.60
44565;DHT22;30275;51.822;-0.326;2022-08-01T13:05:50;24.60;94.60
44565;DHT22;30275;51.822;-0.326;2022-08-01T13:10:46;24.60;94.60
44565;DHT22;30275;51.822;-0.326;2022-08-01T13:13:13;24.60;94.60
44565;DHT22;30275;51.822;-0.326;2022-08-01T13:15:41;24.70;94.60
44565;DHT22;30275;51.822;-0.326;2022-08-01T13:18:50;24.70;94.60
44565;DHT22;30275;51.822;-0.326;2022-08-01T13:21:19;24.70;94.60
44565;DHT22;30275;51.822;-0.326;2022-08-01T13:24:07;24.70;94.60
44565;DHT22;30275;51.822;-0.326;2022-08-01T13:29:33;24.80;94.50
44565;DHT22;30275;51.822;-0.326;2022-08-01T13:32:11;24.80;94.40
44565;DHT22;30275;51.822;-0.326;2022-08-01T13:34:37;24.90;94.50
44565;DHT22;30275;51.822;-0.326;2022-08-01T13:37:03;24.90;94.50
44565;DHT22;30275;51.822;-0.326;2022-08-01T13:39:29;24.90;94.40
44565;DHT22;30275;51.822;-0.326;2022-08-01T13:42:11;24.90;94.40
44565;DHT22;30275;51.822;-0.326;2022-08-01T13:44:37;24.90;94.40
44565;DHT22;30275;51.822;-0.326;2022-08-01T13:47:04;24.90;94.40
44565;DHT22;30275;51.822;-0.326;2022-08-01T13:49:31;24.90;94.40
44565;DHT22;30275;51.822;-0.326;2022-08-01T13:51:57;24.90;94.40
44565;DHT22;30275;51.822;-0.326;2022-08-01T13:54:23;25.00;94.40
44565;DHT22;30275;51.822;-0.326;2022-08-01T13:56:50;25.00;94.40
44565;DHT22;30275;51.822;-0.326;2022-08-01T13:59:16;25.00;94.40
44565;DHT22;30275;51.822;-0.326;2022-08-01T14:01:42;25.10;94.40
44565;DHT22;30275;51.822;-0.326;2022-08-01T14:04:07;25.00;94.40
44565;DHT22;30275;51.822;-0.326;2022-08-01T14:06:34;25.00;94.40
44565;DHT22;30275;51.822;-0.326;2022-08-01T14:09:01;25.00;94.40
44565;DHT22;30275;51.822;-0.326;2022-08-01T14:11:27;25.00;94.40
44565;DHT22;30275;51.822;-0.326;2022-08-01T14:13:53;25.10;94.40
44565;DHT22;30275;51.822;-0.326;2022-08-01T14:16:19;25.10;94.40
44565;DHT22;30275;51.822;-0.326;2022-08-01T14:18:44;25.10;94.30
44565;DHT22;30275;51.822;-0.326;2022-08-01T14:21:10;25.20;94.30
44565;DHT22;30275;51.822;-0.326;2022-08-01T14:23:36;25.20;94.30
44565;DHT22;30275;51.822;-0.326;2022-08-01T14:26:02;25.20;94.20
44565;DHT22;30275;51.822;-0.326;2022-08-01T14:28:28;25.20;94.20
44565;DHT22;30275;51.822;-0.326;2022-08-01T14:30:58;25.20;94.20
44565;DHT22;30275;51.822;-0.326;2022-08-01T14:33:25;25.20;94.20
44565;DHT22;30275;51.822;-0.326;2022-08-01T14:35:51;25.30;94.20
44565;DHT22;30275;51.822;-0.326;2022-08-01T14:38:17;25.30;94.20
44565;DHT22;30275;51.822;-0.326;2022-08-01T14:40:43;25.30;94.10
44565;DHT22;30275;51.822;-0.326;2022-08-01T14:43:09;25.30;94.10
44565;DHT22;30275;51.822;-0.326;2022-08-01T14:45:34;25.30;94.10
44565;DHT22;30275;51.822;-0.326;2022-08-01T14:48:00;25.30;94.00
44565;DHT22;30275;51.822;-0.326;2022-08-01T14:50:26;25.30;94.00
44565;DHT22;30275;51.822;-0.326;2022-08-01T14:52:53;25.30;94.00
44565;DHT22;30275;51.822;-0.326;2022-08-01T14:55:19;25.30;94.00
44565;DHT22;30275;51.822;-0.326;2022-08-01T14:57:49;25.30;94.00
44565;DHT22;30275;51.822;-0.326;2022-08-01T15:00:15;25.40;94.10
44565;DHT22;30275;51.822;-0.326;2022-08-01T15:02:42;25.30;94.00
44565;DHT22;30275;51.822;-0.326;2022-08-01T15:05:08;25.40;94.00
44565;DHT22;30275;51.822;-0.326;2022-08-01T15:07:35;25.40;94.00
44565;DHT22;30275;51.822;-0.326;2022-08-01T15:10:01;25.40;94.00
44565;DHT22;30275;51.822;-0.326;2022-08-01T15:12:27;25.40;93.90
44565;DHT22;30275;51.822;-0.326;2022-08-01T15:14:53;25.40;94.00
44565;DHT22;30275;51.822;-0.326;2022-08-01T15:17:26;25.40;93.90
44565;DHT22;30275;51.822;-0.326;2022-08-01T15:19:55;25.40;93.90
44565;DHT22;30275;51.822;-0.326;2022-08-01T15:22:22;25.50;93.90
44565;DHT22;30275;51.822;-0.326;2022-08-01T15:24:50;25.50;93.90
44565;DHT22;30275;51.822;-0.326;2022-08-01T15:27:15;25.50;93.80
44565;DHT22;30275;51.822;-0.326;2022-08-01T15:29:41;25.50;93.80
44565;DHT22;30275;51.822;-0.326;2022-08-01T15:32:07;25.50;93.80
44565;DHT22;30275;51.822;-0.326;2022-08-01T15:34:34;25.50;93.80
44565;DHT22;30275;51.822;-0.326;2022-08-01T15:37:00;25.50;93.70
44565;DHT22;30275;51.822;-0.326;2022-08-01T15:39:26;25.50;93.70
44565;DHT22;30275;51.822;-0.326;2022-08-01T15:41:52;25.50;93.70
44565;DHT22;30275;51.822;-0.326;2022-08-01T15:44:18;25.60;93.70
44565;DHT22;30275;51.822;-0.326;2022-08-01T15:46:46;25.50;93.60
44565;DHT22;30275;51.822;-0.326;2022-08-01T15:49:12;25.50;93.60
44565;DHT22;30275;51.822;-0.326;2022-08-01T15:51:38;25.60;93.70
44565;DHT22;30275;51.822;-0.326;2022-08-01T15:54:03;25.50;93.60
44565;DHT22;30275;51.822;-0.326;2022-08-01T15:56:32;25.50;93.70
44565;DHT22;30275;51.822;-0.326;2022-08-01T15:58:58;25.50;93.70
44565;DHT22;30275;51.822;-0.326;2022-08-01T16:01:24;25.50;93.70
44565;DHT22;30275;51.822;-0.326;2022-08-01T16:03:52;25.60;93.70
44565;DHT22;30275;51.822;-0.326;2022-08-01T16:06:17;25.60;93.60
44565;DHT22;30275;51.822;-0.326;2022-08-01T16:08:43;25.50;93.50
44565;DHT22;30275;51.822;-0.326;2022-08-01T16:11:09;25.60;93.50
44565;DHT22;30275;51.822;-0.326;2022-08-01T16:13:35;25.50;93.40